createdAt,value
2023-05-24T00:01:37.727Z,100275.56
2023-05-24T00:04:41.720Z,100273.00
2023-05-24T00:07:44.387Z,100259.72
2023-05-24T00:10:46.865Z,100265.53
2023-05-24T00:13:49.899Z,100269.44
2023-05-24T00:16:52.451Z,100272.03
2023-05-24T00:19:54.899Z,100273.75
2023-05-24T00:22:57.287Z,100272.34
2023-05-24T00:25:59.871Z,100285.53
2023-05-24T00:29:02.467Z,100284.72
2023-05-24T00:32:05.233Z,100284.88
2023-05-24T00:35:08.073Z,100287.19
2023-05-24T00:38:10.628Z,100289.94
2023-05-24T00:41:13.173Z,100295.47
2023-05-24T00:44:15.749Z,100290.75
2023-05-24T00:47:18.347Z,100283.94
2023-05-24T00:50:22.173Z,100287.19
2023-05-24T00:53:24.549Z,100286.84
2023-05-24T00:56:28.068Z,100272.09
2023-05-24T00:59:31.221Z,100282.25
2023-05-24T01:02:33.740Z,100275.41
2023-05-24T01:05:36.296Z,100275.53
2023-05-24T01:08:58.153Z,100271.34
2023-05-24T01:12:16.566Z,100275.69
2023-05-24T01:15:23.253Z,100265.47
2023-05-24T01:18:30.605Z,100275.06
2023-05-24T01:21:50.635Z,100282.41
2023-05-24T01:25:11.789Z,100284.66
2023-05-24T01:28:14.687Z,100273.28
2023-05-24T01:31:18.853Z,100283.13
2023-05-24T01:34:26.661Z,100277.28
2023-05-24T01:37:29.097Z,100286.69
2023-05-24T01:40:31.569Z,100279.84
2023-05-24T01:44:03.461Z,100275.31
2023-05-24T01:47:21.806Z,100275.00
2023-05-24T01:50:32.830Z,100279.03
2023-05-24T01:53:37.988Z,100293.03
2023-05-24T01:56:42.050Z,100274.72
2023-05-24T01:59:45.216Z,100276.28
2023-05-24T02:02:49.752Z,100289.13
2023-05-24T02:05:53.335Z,100279.25
2023-05-24T02:08:55.772Z,100270.16
2023-05-24T02:11:58.263Z,100273.09
2023-05-24T02:15:01.752Z,100265.78
2023-05-24T02:18:04.701Z,100267.34
2023-05-24T02:21:07.265Z,100268.53
2023-05-24T02:24:12.608Z,100267.03
2023-05-24T02:27:15.228Z,100261.00
2023-05-24T02:30:17.685Z,100267.94
2023-05-24T02:33:20.120Z,100265.69
2023-05-24T02:36:23.774Z,100273.06
2023-05-24T02:39:26.391Z,100277.47
2023-05-24T02:42:29.391Z,100277.47
2023-05-24T02:45:31.900Z,100275.19
2023-05-24T02:48:34.289Z,100277.91
2023-05-24T02:51:39.655Z,100282.47
2023-05-24T02:54:42.451Z,100286.50
2023-05-24T02:57:45.067Z,100287.66
2023-05-24T03:00:48.014Z,100287.19
2023-05-24T03:03:50.820Z,100284.63
2023-05-24T03:06:53.748Z,100285.06
2023-05-24T03:09:56.309Z,100271.72
2023-05-24T03:12:59.473Z,100284.91
2023-05-24T03:16:02.050Z,100293.50
2023-05-24T03:19:08.437Z,100293.84
2023-05-24T03:22:12.704Z,100295.63
2023-05-24T03:25:15.177Z,100281.69
2023-05-24T03:28:17.802Z,100291.69
2023-05-24T03:31:21.141Z,100292.00
2023-05-24T03:34:24.058Z,100290.06
2023-05-24T03:37:26.462Z,100296.84
2023-05-24T03:40:32.550Z,100294.28
2023-05-24T03:43:42.413Z,100300.44
2023-05-24T03:46:50.685Z,100306.59
2023-05-24T03:49:53.108Z,100297.50
2023-05-24T03:52:55.653Z,100308.22
2023-05-24T03:55:59.002Z,100311.75
2023-05-24T03:59:04.129Z,100304.34
2023-05-24T04:02:08.390Z,100315.69
2023-05-24T04:05:11.270Z,100323.28
2023-05-24T04:08:15.226Z,100324.25
2023-05-24T04:11:17.673Z,100327.53
2023-05-24T04:14:21.140Z,100327.16
2023-05-24T04:17:25.083Z,100330.91
2023-05-24T04:20:29.425Z,100330.72
2023-05-24T04:23:32.102Z,100331.53
2023-05-24T04:26:35.231Z,100339.97
2023-05-24T04:29:39.410Z,100338.81
2023-05-24T04:32:41.865Z,100344.00
2023-05-24T04:35:45.832Z,100350.00
2023-05-24T04:38:49.231Z,100357.72
2023-05-24T04:41:53.245Z,100357.72
2023-05-24T04:44:55.775Z,100345.53
2023-05-24T04:47:58.228Z,100352.91
2023-05-24T04:51:00.710Z,100356.44
2023-05-24T04:54:08.999Z,100367.59
2023-05-24T04:57:11.936Z,100369.47
2023-05-24T05:00:14.808Z,100374.72
2023-05-24T05:03:17.233Z,100370.13
2023-05-24T05:06:19.798Z,100381.81
2023-05-24T05:09:24.467Z,100357.53
2023-05-24T05:12:27.013Z,100375.81
2023-05-24T05:15:29.626Z,100374.78
2023-05-24T05:18:32.893Z,100384.25
2023-05-24T05:21:36.574Z,100378.25
2023-05-24T05:24:39.023Z,100385.13
2023-05-24T05:27:41.520Z,100393.91
2023-05-24T05:30:44.138Z,100393.75
2023-05-24T05:33:46.681Z,100388.56
2023-05-24T05:36:49.104Z,100399.41
2023-05-24T05:39:51.538Z,100395.00
2023-05-24T05:42:54.016Z,100390.75
2023-05-24T05:45:57.247Z,100405.34
2023-05-24T05:48:59.853Z,100406.78
2023-05-24T05:52:05.882Z,100399.97
2023-05-24T05:55:09.522Z,100409.59
2023-05-24T05:58:12.544Z,100408.09
2023-05-24T06:01:17.001Z,100417.63
2023-05-24T06:04:19.666Z,100422.28
2023-05-24T06:07:22.106Z,100412.66
2023-05-24T06:10:24.646Z,100427.44
2023-05-24T06:13:28.445Z,100426.91
2023-05-24T06:16:32.710Z,100424.47
2023-05-24T06:19:35.157Z,100423.50
2023-05-24T06:22:39.960Z,100417.88
2023-05-24T06:25:43.994Z,100418.06
2023-05-24T06:28:46.518Z,100431.31
2023-05-24T06:31:49.882Z,100430.72
2023-05-24T06:34:52.717Z,100433.72
2023-05-24T06:37:55.098Z,100439.91
2023-05-24T06:40:57.456Z,100438.59
2023-05-24T06:43:59.922Z,100448.81
2023-05-24T06:47:02.906Z,100460.72
2023-05-24T06:50:05.843Z,100454.25
2023-05-24T06:53:08.295Z,100469.84
2023-05-24T06:56:10.733Z,100470.00
2023-05-24T06:59:13.124Z,100463.72
2023-05-24T07:02:15.540Z,100468.66
2023-05-24T07:05:17.995Z,100474.75
2023-05-24T07:08:20.401Z,100475.41
2023-05-24T07:11:23.077Z,100477.72
2023-05-24T07:14:27.493Z,100486.59
2023-05-24T07:17:30.164Z,100485.38
2023-05-24T07:20:32.734Z,100496.47
2023-05-24T07:23:35.558Z,100491.97
2023-05-24T07:26:37.983Z,100491.69
2023-05-24T07:29:40.329Z,100502.09
2023-05-24T07:32:42.782Z,100495.88
2023-05-24T07:35:51.245Z,100498.56
2023-05-24T07:38:53.584Z,100515.19
2023-05-24T07:41:56.063Z,100514.31
2023-05-24T07:44:58.525Z,100514.19
2023-05-24T07:48:01.373Z,100521.13
2023-05-24T07:51:03.920Z,100524.75
2023-05-24T07:54:06.822Z,100524.25
2023-05-24T07:57:09.639Z,100520.84
2023-05-24T08:00:14.923Z,100528.09
2023-05-24T08:03:18.072Z,100532.28
2023-05-24T08:06:20.654Z,100531.81
2023-05-24T08:09:23.650Z,100538.66
2023-05-24T08:12:26.257Z,100522.31
2023-05-24T08:15:28.725Z,100537.16
2023-05-24T08:18:31.302Z,100542.75
2023-05-24T08:21:34.092Z,100557.03
2023-05-24T08:24:36.462Z,100565.19
2023-05-24T08:27:38.867Z,100566.63
2023-05-24T08:30:41.392Z,100565.63
2023-05-24T08:33:43.887Z,100572.69
2023-05-24T08:36:46.382Z,100569.09
2023-05-24T08:39:49.164Z,100573.09
2023-05-24T08:42:53.298Z,100572.25
2023-05-24T08:45:58.820Z,100563.16
2023-05-24T08:49:03.639Z,100565.66
2023-05-24T08:52:07.805Z,100569.69
2023-05-24T08:55:10.913Z,100572.66
2023-05-24T08:58:13.913Z,100568.69
2023-05-24T09:01:17.790Z,100567.97
2023-05-24T09:04:22.099Z,100565.97
2023-05-24T09:07:25.422Z,100570.41
2023-05-24T09:10:33.137Z,100571.88
2023-05-24T09:13:41.182Z,100575.25
2023-05-24T09:16:45.125Z,100586.84
2023-05-24T09:19:47.693Z,100582.38
2023-05-24T09:22:53.224Z,100579.47
2023-05-24T09:25:55.704Z,100573.22
2023-05-24T09:28:58.224Z,100587.97
2023-05-24T09:32:00.650Z,100590.63
2023-05-24T09:35:03.264Z,100596.63
2023-05-24T09:38:06.335Z,100597.44
2023-05-24T09:41:11.049Z,100594.34
2023-05-24T09:44:15.480Z,100594.38
2023-05-24T09:47:17.986Z,100598.69
2023-05-24T09:50:20.445Z,100595.97
2023-05-24T09:53:23.273Z,100596.34
2023-05-24T09:56:25.834Z,100595.34
2023-05-24T09:59:28.777Z,100595.63
2023-05-24T10:02:41.318Z,100596.91
2023-05-24T10:05:48.519Z,100605.50
2023-05-24T10:08:54.572Z,100607.72
2023-05-24T10:11:57.010Z,100608.19
2023-05-24T10:15:00.177Z,100606.16
2023-05-24T10:18:09.848Z,100608.56
2023-05-24T10:21:14.556Z,100612.97
2023-05-24T10:24:19.317Z,100614.22
2023-05-24T10:27:28.830Z,100605.28
2023-05-24T10:30:42.869Z,100605.50
2023-05-24T10:33:48.606Z,100614.56
2023-05-24T10:36:51.641Z,100613.91
2023-05-24T10:39:54.508Z,100610.72
2023-05-24T10:42:57.062Z,100621.97
2023-05-24T10:45:59.680Z,100612.44
2023-05-24T10:49:04.152Z,100613.94
2023-05-24T10:52:10.805Z,100616.47
2023-05-24T10:55:13.408Z,100618.16
2023-05-24T10:58:15.871Z,100613.44
2023-05-24T11:01:32.137Z,100621.03
2023-05-24T11:04:37.943Z,100605.66
2023-05-24T11:07:43.709Z,100609.34
2023-05-24T11:10:46.706Z,100610.72
2023-05-24T11:13:49.466Z,100612.47
2023-05-24T11:16:52.044Z,100611.16
2023-05-24T11:19:56.046Z,100620.75
2023-05-24T11:22:59.859Z,100612.63
2023-05-24T11:26:04.496Z,100617.59
2023-05-24T11:29:07.899Z,100626.88
2023-05-24T11:32:10.518Z,100618.69
2023-05-24T11:35:13.029Z,100614.69
2023-05-24T11:38:17.122Z,100620.34
2023-05-24T11:41:19.576Z,100615.09
2023-05-24T11:44:22.692Z,100612.91
2023-05-24T11:47:25.399Z,100605.44
2023-05-24T11:50:28.895Z,100611.09
2023-05-24T11:53:31.348Z,100613.47
2023-05-24T11:56:34.363Z,100613.75
2023-05-24T11:59:38.229Z,100616.31
2023-05-24T12:02:41.765Z,100609.56
2023-05-24T12:05:44.643Z,100620.25
2023-05-24T12:08:48.004Z,100611.59
2023-05-24T12:11:51.592Z,100622.91
2023-05-24T12:14:56.845Z,100621.75
2023-05-24T12:17:59.734Z,100618.03
2023-05-24T12:21:02.182Z,100616.97
2023-05-24T12:24:15.296Z,100614.44
2023-05-24T12:27:17.794Z,100621.69
2023-05-24T12:30:26.532Z,100621.50
2023-05-24T12:33:29.168Z,100613.06
2023-05-24T12:36:31.735Z,100617.22
2023-05-24T12:39:37.514Z,100618.56
2023-05-24T12:42:39.951Z,100616.19
2023-05-24T12:45:42.412Z,100607.00
2023-05-24T12:48:45.536Z,100623.38
2023-05-24T12:51:49.334Z,100612.47
2023-05-24T12:54:52.261Z,100625.53
2023-05-24T12:57:56.335Z,100624.72
2023-05-24T13:00:59.198Z,100627.06
2023-05-24T13:04:01.663Z,100619.34
2023-05-24T13:07:04.163Z,100624.66
2023-05-24T13:10:08.246Z,100616.97
2023-05-24T13:13:10.780Z,100614.66
2023-05-24T13:16:13.639Z,100622.78
2023-05-24T13:19:16.699Z,100618.41
2023-05-24T13:22:20.092Z,100565.91
2023-05-24T13:25:22.824Z,100617.38
2023-05-24T13:28:25.741Z,100615.22
2023-05-24T13:31:28.476Z,100616.75
2023-05-24T13:34:31.130Z,100615.19
2023-05-24T13:37:33.640Z,100622.16
2023-05-24T13:40:38.349Z,100616.44
2023-05-24T13:43:42.555Z,100607.31
2023-05-24T13:46:45.938Z,100606.75
2023-05-24T13:49:48.986Z,100616.25
2023-05-24T13:52:51.765Z,100618.16
2023-05-24T13:55:55.027Z,100619.38
2023-05-24T13:58:57.799Z,100615.47
2023-05-24T14:02:00.393Z,100623.41
2023-05-24T14:05:21.683Z,100606.19
2023-05-24T14:08:26.005Z,100613.19
2023-05-24T14:11:31.709Z,100620.13
2023-05-24T14:17:40.202Z,100616.91
2023-05-24T14:20:43.007Z,100629.28
2023-05-24T14:23:45.440Z,100622.78
2023-05-24T14:26:47.957Z,100623.34
2023-05-24T14:29:51.970Z,100622.00
2023-05-24T14:32:54.780Z,100630.16
2023-05-24T14:35:57.206Z,100621.09
2023-05-24T14:38:59.643Z,100611.88
2023-05-24T14:42:02.077Z,100627.88
2023-05-24T14:45:04.995Z,100620.63
2023-05-24T14:48:11.670Z,100630.78
2023-05-24T14:51:14.581Z,100619.38
2023-05-24T14:54:16.990Z,100637.00
2023-05-24T14:57:19.420Z,100638.31
2023-05-24T15:00:23.245Z,100633.47
2023-05-24T15:03:26.595Z,100642.16
2023-05-24T15:06:34.890Z,100643.31
2023-05-24T15:09:37.421Z,100640.63
2023-05-24T15:12:40.022Z,100641.03
2023-05-24T15:15:43.472Z,100637.56
2023-05-24T15:18:47.822Z,100643.09
2023-05-24T15:21:51.365Z,100643.91
2023-05-24T15:24:53.861Z,100646.44
2023-05-24T15:27:56.889Z,100646.06
2023-05-24T15:31:03.320Z,100641.41
2023-05-24T15:34:07.697Z,100640.47
2023-05-24T15:37:12.360Z,100644.63
2023-05-24T15:40:19.251Z,100647.78
2023-05-24T15:43:22.086Z,100654.19
2023-05-24T15:46:25.234Z,100655.34
2023-05-24T15:49:29.580Z,100643.75
2023-05-24T15:52:33.725Z,100652.28
2023-05-24T15:55:37.474Z,100650.53
2023-05-24T15:58:39.922Z,100643.75
2023-05-24T16:01:42.718Z,100646.47
2023-05-24T16:04:45.314Z,100660.88
2023-05-24T16:07:47.844Z,100644.47
2023-05-24T16:10:50.499Z,100655.00
2023-05-24T16:13:54.417Z,100654.31
2023-05-24T16:16:58.808Z,100654.63
2023-05-24T16:20:01.757Z,100665.22
2023-05-24T16:23:04.529Z,100676.63
2023-05-24T16:26:07.113Z,100666.25
2023-05-24T16:29:11.527Z,100671.63
2023-05-24T16:32:14.388Z,100675.13
2023-05-24T16:35:17.099Z,100680.59
2023-05-24T16:38:19.671Z,100683.31
2023-05-24T16:41:22.371Z,100690.31
2023-05-24T16:44:24.790Z,100694.00
2023-05-24T16:47:29.588Z,100704.47
2023-05-24T16:50:33.728Z,100703.44
2023-05-24T16:53:36.312Z,100709.31
2023-05-24T16:56:38.831Z,100703.22
2023-05-24T16:59:42.431Z,100706.81
2023-05-24T17:02:45.293Z,100713.25
2023-05-24T17:05:49.406Z,100714.72
2023-05-24T17:08:51.937Z,100725.25
2023-05-24T17:11:54.459Z,100736.59
2023-05-24T17:14:57.030Z,100740.16
2023-05-24T17:17:59.815Z,100739.59
2023-05-24T17:21:04.564Z,100735.25
2023-05-24T17:24:07.248Z,100738.38
2023-05-24T17:27:09.716Z,100734.72
2023-05-24T17:30:12.776Z,100739.13
2023-05-24T17:33:15.205Z,100733.47
2023-05-24T17:36:17.672Z,100748.59
2023-05-24T17:39:21.472Z,100753.00
2023-05-24T17:42:25.000Z,100758.44
2023-05-24T17:45:27.583Z,100755.25
2023-05-24T17:48:32.934Z,100765.75
2023-05-24T17:51:35.501Z,100747.69
2023-05-24T17:54:37.971Z,100777.50
2023-05-24T17:57:40.428Z,100776.63
2023-05-24T18:00:42.847Z,100775.13
2023-05-24T18:03:45.331Z,100781.91
2023-05-24T18:06:47.707Z,100791.94
2023-05-24T18:09:50.165Z,100790.56
2023-05-24T18:12:52.550Z,100797.00
2023-05-24T18:15:57.070Z,100799.88
2023-05-24T18:18:59.720Z,100804.00
2023-05-24T18:22:02.160Z,100810.34
2023-05-24T18:25:04.908Z,100812.00
2023-05-24T18:28:07.506Z,100829.84
2023-05-24T18:31:10.735Z,100825.69
2023-05-24T18:34:13.864Z,100826.38
2023-05-24T18:37:16.505Z,100842.94
2023-05-24T18:40:18.984Z,100831.53
2023-05-24T18:43:21.552Z,100845.88
2023-05-24T18:46:26.071Z,100845.84
2023-05-24T18:49:28.600Z,100842.88
2023-05-24T18:52:31.113Z,100851.31
2023-05-24T18:55:33.593Z,100864.28
2023-05-24T18:58:36.177Z,100852.44
2023-05-24T19:01:38.567Z,100867.91
2023-05-24T19:04:41.026Z,100878.88
2023-05-24T19:07:43.537Z,100878.88
2023-05-24T19:10:46.180Z,100896.88
2023-05-24T19:13:48.600Z,100883.09
2023-05-24T19:16:51.085Z,100878.47
2023-05-24T19:19:53.500Z,100871.19
2023-05-24T19:22:57.281Z,100875.88
2023-05-24T19:25:59.787Z,100872.84
2023-05-24T19:29:02.346Z,100888.19
2023-05-24T19:32:05.124Z,100885.72
2023-05-24T19:35:08.495Z,100897.44
2023-05-24T19:38:12.233Z,100893.09
2023-05-24T19:41:14.818Z,100900.06
2023-05-24T19:44:17.232Z,100891.38
2023-05-24T19:47:19.696Z,100879.84
2023-05-24T19:50:22.376Z,100897.84
2023-05-24T19:53:24.909Z,100905.38
2023-05-24T19:56:27.579Z,100907.63
2023-05-24T19:59:30.358Z,100917.41
2023-05-24T20:02:35.540Z,100910.16
2023-05-24T20:05:39.590Z,100920.59
2023-05-24T20:08:42.396Z,100919.97
2023-05-24T20:11:48.380Z,100924.63
2023-05-24T20:14:52.723Z,100922.44
2023-05-24T20:17:55.384Z,100923.81
2023-05-24T20:20:57.828Z,100923.00
2023-05-24T20:24:00.428Z,100923.44
2023-05-24T20:27:03.201Z,100919.56
2023-05-24T20:30:06.542Z,100928.28
2023-05-24T20:33:08.926Z,100922.59
2023-05-24T20:36:11.563Z,100936.38
2023-05-24T20:39:13.995Z,100935.22
2023-05-24T20:42:16.685Z,100940.38
2023-05-24T20:45:19.964Z,100938.28
2023-05-24T20:48:23.400Z,100939.28
2023-05-24T20:51:25.832Z,100929.84
2023-05-24T20:54:28.158Z,100922.56
2023-05-24T20:57:30.985Z,100930.97
2023-05-24T21:00:33.494Z,100932.97
2023-05-24T21:03:36.156Z,100924.72
2023-05-24T21:06:40.112Z,100935.09
2023-05-24T21:09:42.946Z,100937.44
2023-05-24T21:12:45.713Z,100933.38
2023-05-24T21:15:48.467Z,100937.50
2023-05-24T21:18:52.238Z,100942.91
2023-05-24T21:21:54.709Z,100934.38
2023-05-24T21:24:57.163Z,100945.03
2023-05-24T21:27:59.719Z,100935.59
2023-05-24T21:31:02.189Z,100947.72
2023-05-24T21:34:04.521Z,100949.03
2023-05-24T21:37:07.277Z,100944.22
2023-05-24T21:40:10.125Z,100950.31
2023-05-24T21:43:12.673Z,100965.53
2023-05-24T21:46:15.127Z,100957.78
2023-05-24T21:49:18.285Z,100964.38
2023-05-24T21:52:20.790Z,100961.66
2023-05-24T21:55:23.331Z,100957.72
2023-05-24T21:58:26.434Z,100963.31
2023-05-24T22:01:29.039Z,100956.31
2023-05-24T22:04:31.504Z,100960.09
2023-05-24T22:07:34.029Z,100961.59
2023-05-24T22:10:36.514Z,100953.28
2023-05-24T22:13:39.256Z,100953.28
2023-05-24T22:16:41.793Z,100965.34
2023-05-24T22:19:44.215Z,100960.22
2023-05-24T22:22:53.733Z,100958.94
2023-05-24T22:25:56.243Z,100965.00
2023-05-24T22:29:04.443Z,100973.91
2023-05-24T22:32:07.114Z,100979.25
2023-05-24T22:35:10.091Z,100977.13
2023-05-24T22:38:12.429Z,100986.53
2023-05-24T22:41:14.803Z,100984.81
2023-05-24T22:44:17.282Z,100983.44
2023-05-24T22:47:22.022Z,100978.94
2023-05-24T22:50:25.707Z,100987.03
2023-05-24T22:53:28.883Z,100985.44
2023-05-24T22:56:32.412Z,100983.81
2023-05-24T22:59:35.833Z,100981.38
2023-05-24T23:02:38.324Z,100990.25
2023-05-24T23:05:41.902Z,100980.69
2023-05-24T23:08:44.568Z,100984.06
2023-05-24T23:11:47.044Z,100984.88
2023-05-24T23:14:49.664Z,100976.28
2023-05-24T23:17:56.471Z,100985.41
2023-05-24T23:21:00.648Z,100973.63
2023-05-24T23:24:05.252Z,100988.56
2023-05-24T23:27:07.706Z,100995.75
2023-05-24T23:30:10.861Z,100983.22
2023-05-24T23:33:13.281Z,100995.19
2023-05-24T23:36:15.860Z,101000.72
2023-05-24T23:39:18.330Z,100992.44
2023-05-24T23:42:20.709Z,100988.69
2023-05-24T23:45:23.711Z,100999.34
2023-05-24T23:48:26.188Z,101008.72
2023-05-24T23:51:34.029Z,101006.88
2023-05-24T23:54:37.006Z,101021.13
2023-05-24T23:57:42.069Z,101017.25
